Terminal Aerodrome Forecast
Issued by NWS

Home | Current Version | Previous Version | Text Only | Print | Product List | Glossary On
Versions: 1 2 3 4 5 6 7 8 9 10 11 12 13 14 15 16 17 18 19 20 21
000
FTUS41 KPBZ 301307 AAA
TAFDUJ
TAF AMD
KDUJ 301307Z 3013/0112 11008KT P6SM BKN010 BKN015 OVC020
     FM301500 09007KT P6SM SCT015
     FM302200 12005KT 3SM -RA OVC035
     FM010200 13005KT 2SM -RA BR OVC020
     FM010400 15007KT 4SM -RA OVC007=

USA.gov is the U.S. government's official web portal to all federal, state and local government web resources and services.